sensor_id;sensor_type;location;lat;lon;timestamp;P1;durP1;ratioP1;P2;durP2;ratioP2
8268;SDS011;4174;48.304;16.364;2023-08-08T00:02:18;4.32;;;1.05;;
8268;SDS011;4174;48.304;16.364;2023-08-08T00:08:21;4.30;;;1.40;;
8268;SDS011;4174;48.304;16.364;2023-08-08T00:14:25;4.63;;;1.20;;
8268;SDS011;4174;48.304;16.364;2023-08-08T00:20:28;4.27;;;1.20;;
8268;SDS011;4174;48.304;16.364;2023-08-08T00:26:32;4.50;;;1.20;;
8268;SDS011;4174;48.304;16.364;2023-08-08T00:32:35;4.40;;;1.30;;
8268;SDS011;4174;48.304;16.364;2023-08-08T00:38:39;5.50;;;1.30;;
8268;SDS011;4174;48.304;16.364;2023-08-08T00:44:44;5.40;;;1.20;;
8268;SDS011;4174;48.304;16.364;2023-08-08T00:50:47;4.83;;;1.13;;
8268;SDS011;4174;48.304;16.364;2023-08-08T00:56:50;4.20;;;1.20;;
8268;SDS011;4174;48.304;16.364;2023-08-08T01:02:53;5.27;;;1.10;;
8268;SDS011;4174;48.304;16.364;2023-08-08T01:08:58;5.43;;;1.20;;
8268;SDS011;4174;48.304;16.364;2023-08-08T01:15:00;4.33;;;1.20;;
8268;SDS011;4174;48.304;16.364;2023-08-08T01:21:03;4.00;;;1.20;;
8268;SDS011;4174;48.304;16.364;2023-08-08T01:27:06;4.35;;;1.20;;
8268;SDS011;4174;48.304;16.364;2023-08-08T01:33:08;4.10;;;1.20;;
8268;SDS011;4174;48.304;16.364;2023-08-08T01:39:13;5.43;;;1.20;;
8268;SDS011;4174;48.304;16.364;2023-08-08T01:45:15;4.50;;;1.30;;
8268;SDS011;4174;48.304;16.364;2023-08-08T01:51:17;4.70;;;1.25;;
8268;SDS011;4174;48.304;16.364;2023-08-08T01:57:22;4.53;;;1.30;;
8268;SDS011;4174;48.304;16.364;2023-08-08T02:03:25;4.70;;;1.20;;
8268;SDS011;4174;48.304;16.364;2023-08-08T02:09:29;4.68;;;1.23;;
8268;SDS011;4174;48.304;16.364;2023-08-08T02:15:34;5.30;;;1.20;;
8268;SDS011;4174;48.304;16.364;2023-08-08T02:21:37;6.18;;;1.37;;
8268;SDS011;4174;48.304;16.364;2023-08-08T02:27:40;4.90;;;1.17;;
8268;SDS011;4174;48.304;16.364;2023-08-08T02:33:44;4.57;;;1.20;;
8268;SDS011;4174;48.304;16.364;2023-08-08T02:39:50;4.33;;;1.10;;
8268;SDS011;4174;48.304;16.364;2023-08-08T02:45:53;4.18;;;1.35;;
8268;SDS011;4174;48.304;16.364;2023-08-08T02:51:57;5.10;;;1.23;;
8268;SDS011;4174;48.304;16.364;2023-08-08T02:58:00;4.40;;;1.30;;
8268;SDS011;4174;48.304;16.364;2023-08-08T03:04:05;4.90;;;1.20;;
8268;SDS011;4174;48.304;16.364;2023-08-08T03:10:07;4.87;;;1.20;;
8268;SDS011;4174;48.304;16.364;2023-08-08T03:16:10;4.10;;;1.20;;
8268;SDS011;4174;48.304;16.364;2023-08-08T03:22:15;5.70;;;1.17;;
8268;SDS011;4174;48.304;16.364;2023-08-08T03:28:18;4.40;;;1.20;;
8268;SDS011;4174;48.304;16.364;2023-08-08T03:34:22;4.30;;;1.25;;
8268;SDS011;4174;48.304;16.364;2023-08-08T03:40:27;5.43;;;1.30;;
8268;SDS011;4174;48.304;16.364;2023-08-08T03:46:30;5.33;;;1.20;;
8268;SDS011;4174;48.304;16.364;2023-08-08T03:52:34;4.35;;;1.23;;
8268;SDS011;4174;48.304;16.364;2023-08-08T03:58:37;4.55;;;1.30;;
8268;SDS011;4174;48.304;16.364;2023-08-08T04:04:40;5.37;;;1.20;;
8268;SDS011;4174;48.304;16.364;2023-08-08T04:10:45;3.92;;;1.20;;
8268;SDS011;4174;48.304;16.364;2023-08-08T04:16:47;4.28;;;1.30;;
8268;SDS011;4174;48.304;16.364;2023-08-08T04:22:50;5.17;;;1.20;;
8268;SDS011;4174;48.304;16.364;2023-08-08T04:28:54;4.63;;;1.30;;
8268;SDS011;4174;48.304;16.364;2023-08-08T04:34:57;4.40;;;1.30;;
8268;SDS011;4174;48.304;16.364;2023-08-08T04:41:02;5.53;;;1.37;;
8268;SDS011;4174;48.304;16.364;2023-08-08T04:47:05;4.07;;;1.20;;
8268;SDS011;4174;48.304;16.364;2023-08-08T04:53:09;4.93;;;1.20;;
8268;SDS011;4174;48.304;16.364;2023-08-08T04:59:12;4.20;;;1.10;;
8268;SDS011;4174;48.304;16.364;2023-08-08T05:05:15;4.80;;;1.40;;
8268;SDS011;4174;48.304;16.364;2023-08-08T05:11:19;9.33;;;1.30;;
8268;SDS011;4174;48.304;16.364;2023-08-08T05:17:24;5.30;;;1.40;;
8268;SDS011;4174;48.304;16.364;2023-08-08T05:23:28;4.82;;;1.12;;
8268;SDS011;4174;48.304;16.364;2023-08-08T05:29:31;4.00;;;1.00;;
8268;SDS011;4174;48.304;16.364;2023-08-08T05:35:35;6.50;;;1.40;;
8268;SDS011;4174;48.304;16.364;2023-08-08T05:41:39;3.90;;;0.90;;
8268;SDS011;4174;48.304;16.364;2023-08-08T05:47:43;4.33;;;0.93;;
8268;SDS011;4174;48.304;16.364;2023-08-08T05:53:47;3.43;;;0.90;;
8268;SDS011;4174;48.304;16.364;2023-08-08T05:59:51;5.05;;;0.95;;
8268;SDS011;4174;48.304;16.364;2023-08-08T06:05:54;5.77;;;0.90;;
8268;SDS011;4174;48.304;16.364;2023-08-08T06:11:58;3.70;;;0.90;;
8268;SDS011;4174;48.304;16.364;2023-08-08T06:18:03;3.80;;;1.10;;
8268;SDS011;4174;48.304;16.364;2023-08-08T06:24:06;3.70;;;0.90;;
8268;SDS011;4174;48.304;16.364;2023-08-08T06:30:10;3.80;;;0.90;;
8268;SDS011;4174;48.304;16.364;2023-08-08T06:36:14;3.50;;;0.90;;
8268;SDS011;4174;48.304;16.364;2023-08-08T06:42:17;4.67;;;1.10;;
8268;SDS011;4174;48.304;16.364;2023-08-08T06:48:21;3.73;;;1.00;;
8268;SDS011;4174;48.304;16.364;2023-08-08T06:54:25;3.50;;;0.80;;
8268;SDS011;4174;48.304;16.364;2023-08-08T07:00:29;3.70;;;0.90;;
8268;SDS011;4174;48.304;16.364;2023-08-08T07:06:32;3.95;;;1.08;;
8268;SDS011;4174;48.304;16.364;2023-08-08T07:12:36;4.80;;;0.90;;
8268;SDS011;4174;48.304;16.364;2023-08-08T07:18:39;3.77;;;0.90;;
8268;SDS011;4174;48.304;16.364;2023-08-08T07:24:43;4.27;;;0.97;;
8268;SDS011;4174;48.304;16.364;2023-08-08T07:30:47;4.32;;;0.98;;
8268;SDS011;4174;48.304;16.364;2023-08-08T07:36:51;3.83;;;0.90;;
8268;SDS011;4174;48.304;16.364;2023-08-08T07:42:55;3.60;;;1.00;;
8268;SDS011;4174;48.304;16.364;2023-08-08T07:48:58;3.87;;;1.00;;
8268;SDS011;4174;48.304;16.364;2023-08-08T07:55:02;3.87;;;1.00;;
8268;SDS011;4174;48.304;16.364;2023-08-08T08:01:06;4.10;;;1.00;;
8268;SDS011;4174;48.304;16.364;2023-08-08T08:07:10;4.83;;;0.90;;
8268;SDS011;4174;48.304;16.364;2023-08-08T08:13:14;3.50;;;0.90;;
8268;SDS011;4174;48.304;16.364;2023-08-08T08:19:17;4.17;;;0.83;;
8268;SDS011;4174;48.304;16.364;2023-08-08T08:25:21;3.80;;;0.90;;
8268;SDS011;4174;48.304;16.364;2023-08-08T08:31:25;3.70;;;0.98;;
8268;SDS011;4174;48.304;16.364;2023-08-08T08:37:30;4.57;;;1.00;;
8268;SDS011;4174;48.304;16.364;2023-08-08T08:43:33;4.80;;;0.90;;
8268;SDS011;4174;48.304;16.364;2023-08-08T08:49:36;4.50;;;0.90;;
8268;SDS011;4174;48.304;16.364;2023-08-08T08:55:39;4.45;;;1.10;;
8268;SDS011;4174;48.304;16.364;2023-08-08T09:01:42;3.55;;;1.00;;
8268;SDS011;4174;48.304;16.364;2023-08-08T09:07:45;4.33;;;1.00;;
8268;SDS011;4174;48.304;16.364;2023-08-08T09:13:48;5.80;;;1.00;;
8268;SDS011;4174;48.304;16.364;2023-08-08T09:19:52;4.50;;;0.93;;
8268;SDS011;4174;48.304;16.364;2023-08-08T09:25:55;3.97;;;0.90;;
8268;SDS011;4174;48.304;16.364;2023-08-08T09:31:58;4.77;;;1.00;;
8268;SDS011;4174;48.304;16.364;2023-08-08T09:38:01;4.03;;;0.97;;
8268;SDS011;4174;48.304;16.364;2023-08-08T09:44:05;3.50;;;0.90;;
8268;SDS011;4174;48.304;16.364;2023-08-08T09:50:08;5.03;;;1.00;;
8268;SDS011;4174;48.304;16.364;2023-08-08T09:56:12;4.03;;;1.05;;
8268;SDS011;4174;48.304;16.364;2023-08-08T10:02:15;4.20;;;1.07;;
8268;SDS011;4174;48.304;16.364;2023-08-08T10:08:18;3.80;;;1.00;;
8268;SDS011;4174;48.304;16.364;2023-08-08T10:14:27;3.65;;;0.98;;
8268;SDS011;4174;48.304;16.364;2023-08-08T10:20:25;4.20;;;1.00;;
8268;SDS011;4174;48.304;16.364;2023-08-08T10:26:29;4.15;;;0.95;;
8268;SDS011;4174;48.304;16.364;2023-08-08T10:32:41;3.97;;;1.00;;
8268;SDS011;4174;48.304;16.364;2023-08-08T10:38:44;3.90;;;0.93;;
8268;SDS011;4174;48.304;16.364;2023-08-08T10:44:52;3.70;;;0.90;;
8268;SDS011;4174;48.304;16.364;2023-08-08T10:50:55;3.45;;;0.90;;
8268;SDS011;4174;48.304;16.364;2023-08-08T10:57:00;3.87;;;0.88;;
8268;SDS011;4174;48.304;16.364;2023-08-08T11:03:04;3.58;;;0.90;;
8268;SDS011;4174;48.304;16.364;2023-08-08T11:09:07;4.00;;;0.93;;
8268;SDS011;4174;48.304;16.364;2023-08-08T11:15:10;5.00;;;0.90;;
8268;SDS011;4174;48.304;16.364;2023-08-08T11:21:14;3.63;;;0.80;;
8268;SDS011;4174;48.304;16.364;2023-08-08T11:27:18;4.13;;;0.90;;
8268;SDS011;4174;48.304;16.364;2023-08-08T11:33:22;3.50;;;0.90;;
8268;SDS011;4174;48.304;16.364;2023-08-08T11:39:26;3.37;;;0.80;;
8268;SDS011;4174;48.304;16.364;2023-08-08T11:45:31;3.70;;;0.90;;
8268;SDS011;4174;48.304;16.364;2023-08-08T11:51:32;4.55;;;0.90;;
8268;SDS011;4174;48.304;16.364;2023-08-08T11:57:35;4.27;;;0.97;;
8268;SDS011;4174;48.304;16.364;2023-08-08T12:03:38;3.67;;;0.90;;
8268;SDS011;4174;48.304;16.364;2023-08-08T12:09:41;3.80;;;1.00;;
8268;SDS011;4174;48.304;16.364;2023-08-08T12:15:45;3.60;;;0.90;;
8268;SDS011;4174;48.304;16.364;2023-08-08T12:21:48;5.10;;;0.90;;
8268;SDS011;4174;48.304;16.364;2023-08-08T12:27:52;4.30;;;0.90;;
8268;SDS011;4174;48.304;16.364;2023-08-08T12:33:56;4.50;;;0.90;;
8268;SDS011;4174;48.304;16.364;2023-08-08T12:40:00;3.50;;;0.80;;
8268;SDS011;4174;48.304;16.364;2023-08-08T12:46:03;3.57;;;0.90;;
8268;SDS011;4174;48.304;16.364;2023-08-08T12:52:07;4.22;;;1.00;;
8268;SDS011;4174;48.304;16.364;2023-08-08T12:58:10;3.37;;;0.83;;
8268;SDS011;4174;48.304;16.364;2023-08-08T13:04:14;3.90;;;0.90;;
8268;SDS011;4174;48.304;16.364;2023-08-08T13:10:18;3.40;;;0.90;;
8268;SDS011;4174;48.304;16.364;2023-08-08T13:16:23;4.15;;;0.90;;
8268;SDS011;4174;48.304;16.364;2023-08-08T13:22:27;3.35;;;0.90;;
8268;SDS011;4174;48.304;16.364;2023-08-08T13:28:30;3.75;;;0.90;;
8268;SDS011;4174;48.304;16.364;2023-08-08T13:34:34;5.80;;;1.00;;
8268;SDS011;4174;48.304;16.364;2023-08-08T13:40:38;3.97;;;0.80;;
8268;SDS011;4174;48.304;16.364;2023-08-08T13:46:41;6.97;;;1.10;;
8268;SDS011;4174;48.304;16.364;2023-08-08T13:52:44;3.80;;;0.90;;
8268;SDS011;4174;48.304;16.364;2023-08-08T13:58:48;4.17;;;1.00;;
8268;SDS011;4174;48.304;16.364;2023-08-08T14:04:50;3.70;;;0.80;;
8268;SDS011;4174;48.304;16.364;2023-08-08T14:10:53;3.87;;;1.00;;
8268;SDS011;4174;48.304;16.364;2023-08-08T14:16:58;5.30;;;1.10;;
8268;SDS011;4174;48.304;16.364;2023-08-08T14:23:02;4.70;;;1.00;;
8268;SDS011;4174;48.304;16.364;2023-08-08T14:29:06;3.70;;;0.93;;
8268;SDS011;4174;48.304;16.364;2023-08-08T14:35:10;3.80;;;0.97;;
8268;SDS011;4174;48.304;16.364;2023-08-08T14:41:13;3.70;;;0.90;;
8268;SDS011;4174;48.304;16.364;2023-08-08T14:47:16;4.10;;;1.00;;
8268;SDS011;4174;48.304;16.364;2023-08-08T14:53:21;4.00;;;1.00;;
8268;SDS011;4174;48.304;16.364;2023-08-08T14:59:25;4.63;;;0.90;;
8268;SDS011;4174;48.304;16.364;2023-08-08T15:05:28;3.60;;;0.93;;
8268;SDS011;4174;48.304;16.364;2023-08-08T15:11:32;6.60;;;1.10;;
8268;SDS011;4174;48.304;16.364;2023-08-08T15:17:35;3.60;;;1.00;;
8268;SDS011;4174;48.304;16.364;2023-08-08T15:23:39;4.20;;;1.13;;
8268;SDS011;4174;48.304;16.364;2023-08-08T15:29:42;3.83;;;0.90;;
8268;SDS011;4174;48.304;16.364;2023-08-08T15:35:45;4.13;;;1.10;;
8268;SDS011;4174;48.304;16.364;2023-08-08T15:41:49;4.20;;;1.10;;
8268;SDS011;4174;48.304;16.364;2023-08-08T15:47:53;4.45;;;0.88;;
8268;SDS011;4174;48.304;16.364;2023-08-08T15:53:58;9.23;;;1.20;;
8268;SDS011;4174;48.304;16.364;2023-08-08T16:00:03;4.00;;;1.00;;
8268;SDS011;4174;48.304;16.364;2023-08-08T16:06:05;4.12;;;1.05;;
8268;SDS011;4174;48.304;16.364;2023-08-08T16:12:08;4.43;;;1.00;;
8268;SDS011;4174;48.304;16.364;2023-08-08T16:18:12;6.00;;;1.00;;
8268;SDS011;4174;48.304;16.364;2023-08-08T16:24:15;3.90;;;1.00;;
8268;SDS011;4174;48.304;16.364;2023-08-08T16:30:19;4.07;;;1.05;;
8268;SDS011;4174;48.304;16.364;2023-08-08T16:36:22;4.40;;;1.10;;
8268;SDS011;4174;48.304;16.364;2023-08-08T16:42:26;3.97;;;1.00;;
8268;SDS011;4174;48.304;16.364;2023-08-08T16:48:30;3.80;;;1.00;;
8268;SDS011;4174;48.304;16.364;2023-08-08T16:54:34;4.70;;;1.00;;
8268;SDS011;4174;48.304;16.364;2023-08-08T17:00:37;5.17;;;1.40;;
8268;SDS011;4174;48.304;16.364;2023-08-08T17:06:41;4.28;;;1.00;;
8268;SDS011;4174;48.304;16.364;2023-08-08T17:12:44;3.73;;;0.93;;
8268;SDS011;4174;48.304;16.364;2023-08-08T17:18:48;4.50;;;1.10;;
8268;SDS011;4174;48.304;16.364;2023-08-08T17:24:51;3.63;;;1.10;;
8268;SDS011;4174;48.304;16.364;2023-08-08T17:30:54;5.00;;;1.10;;
8268;SDS011;4174;48.304;16.364;2023-08-08T17:36:58;3.80;;;0.97;;
8268;SDS011;4174;48.304;16.364;2023-08-08T17:43:02;4.75;;;1.37;;
8268;SDS011;4174;48.304;16.364;2023-08-08T17:49:05;4.30;;;1.30;;
8268;SDS011;4174;48.304;16.364;2023-08-08T17:55:09;5.72;;;1.30;;
8268;SDS011;4174;48.304;16.364;2023-08-08T18:01:13;4.90;;;1.10;;
8268;SDS011;4174;48.304;16.364;2023-08-08T18:07:16;7.23;;;1.20;;
8268;SDS011;4174;48.304;16.364;2023-08-08T18:13:20;4.07;;;1.20;;
8268;SDS011;4174;48.304;16.364;2023-08-08T18:19:23;4.70;;;1.20;;
8268;SDS011;4174;48.304;16.364;2023-08-08T18:25:27;5.10;;;1.13;;
8268;SDS011;4174;48.304;16.364;2023-08-08T18:31:30;4.97;;;1.90;;
8268;SDS011;4174;48.304;16.364;2023-08-08T18:37:33;5.77;;;1.23;;
8268;SDS011;4174;48.304;16.364;2023-08-08T18:43:35;4.90;;;1.30;;
8268;SDS011;4174;48.304;16.364;2023-08-08T18:49:39;5.10;;;1.40;;
8268;SDS011;4174;48.304;16.364;2023-08-08T18:55:43;6.13;;;1.50;;
8268;SDS011;4174;48.304;16.364;2023-08-08T19:01:47;4.32;;;1.40;;
8268;SDS011;4174;48.304;16.364;2023-08-08T19:07:51;4.10;;;1.30;;
8268;SDS011;4174;48.304;16.364;2023-08-08T19:13:55;4.68;;;1.40;;
8268;SDS011;4174;48.304;16.364;2023-08-08T19:19:59;5.30;;;1.30;;
8268;SDS011;4174;48.304;16.364;2023-08-08T19:26:02;4.27;;;1.27;;
8268;SDS011;4174;48.304;16.364;2023-08-08T19:32:05;4.67;;;1.30;;
8268;SDS011;4174;48.304;16.364;2023-08-08T19:38:09;4.50;;;1.40;;
8268;SDS011;4174;48.304;16.364;2023-08-08T19:44:11;5.15;;;1.50;;
8268;SDS011;4174;48.304;16.364;2023-08-08T19:50:15;6.40;;;1.80;;
8268;SDS011;4174;48.304;16.364;2023-08-08T19:56:19;4.30;;;1.50;;
8268;SDS011;4174;48.304;16.364;2023-08-08T20:02:22;5.80;;;1.70;;
8268;SDS011;4174;48.304;16.364;2023-08-08T20:08:25;4.20;;;1.30;;
8268;SDS011;4174;48.304;16.364;2023-08-08T20:14:29;4.40;;;1.20;;
8268;SDS011;4174;48.304;16.364;2023-08-08T20:20:32;5.10;;;1.40;;
8268;SDS011;4174;48.304;16.364;2023-08-08T20:26:36;4.70;;;1.40;;
8268;SDS011;4174;48.304;16.364;2023-08-08T20:32:39;4.60;;;1.40;;
8268;SDS011;4174;48.304;16.364;2023-08-08T20:38:43;4.50;;;1.40;;
8268;SDS011;4174;48.304;16.364;2023-08-08T20:44:47;4.27;;;1.37;;
8268;SDS011;4174;48.304;16.364;2023-08-08T20:50:51;4.93;;;1.48;;
8268;SDS011;4174;48.304;16.364;2023-08-08T20:56:55;4.90;;;1.20;;
8268;SDS011;4174;48.304;16.364;2023-08-08T21:02:58;5.53;;;1.40;;
8268;SDS011;4174;48.304;16.364;2023-08-08T21:09:01;5.60;;;1.40;;
8268;SDS011;4174;48.304;16.364;2023-08-08T21:15:05;4.63;;;1.40;;
8268;SDS011;4174;48.304;16.364;2023-08-08T21:21:09;5.15;;;1.60;;
8268;SDS011;4174;48.304;16.364;2023-08-08T21:27:12;5.80;;;1.60;;
8268;SDS011;4174;48.304;16.364;2023-08-08T21:33:16;4.83;;;1.50;;
8268;SDS011;4174;48.304;16.364;2023-08-08T21:39:20;5.32;;;1.60;;
8268;SDS011;4174;48.304;16.364;2023-08-08T21:45:24;4.90;;;1.60;;
8268;SDS011;4174;48.304;16.364;2023-08-08T21:51:27;5.00;;;1.50;;
8268;SDS011;4174;48.304;16.364;2023-08-08T21:57:30;5.63;;;1.70;;
8268;SDS011;4174;48.304;16.364;2023-08-08T22:03:34;5.28;;;1.80;;
8268;SDS011;4174;48.304;16.364;2023-08-08T22:09:38;5.53;;;1.67;;
8268;SDS011;4174;48.304;16.364;2023-08-08T22:15:42;5.18;;;1.60;;
8268;SDS011;4174;48.304;16.364;2023-08-08T22:21:45;6.53;;;1.60;;
8268;SDS011;4174;48.304;16.364;2023-08-08T22:27:48;6.43;;;1.80;;
8268;SDS011;4174;48.304;16.364;2023-08-08T22:33:52;5.00;;;1.67;;
8268;SDS011;4174;48.304;16.364;2023-08-08T22:39:56;5.60;;;1.50;;
8268;SDS011;4174;48.304;16.364;2023-08-08T22:46:01;7.28;;;1.77;;
8268;SDS011;4174;48.304;16.364;2023-08-08T22:52:03;4.93;;;1.83;;
8268;SDS011;4174;48.304;16.364;2023-08-08T22:58:06;4.90;;;1.50;;
8268;SDS011;4174;48.304;16.364;2023-08-08T23:04:10;6.70;;;1.57;;
8268;SDS011;4174;48.304;16.364;2023-08-08T23:10:13;4.70;;;1.40;;
8268;SDS011;4174;48.304;16.364;2023-08-08T23:16:17;5.55;;;1.40;;
8268;SDS011;4174;48.304;16.364;2023-08-08T23:22:21;5.00;;;1.30;;
8268;SDS011;4174;48.304;16.364;2023-08-08T23:28:25;4.47;;;1.30;;
8268;SDS011;4174;48.304;16.364;2023-08-08T23:34:28;4.60;;;1.20;;
8268;SDS011;4174;48.304;16.364;2023-08-08T23:40:31;5.00;;;1.27;;
8268;SDS011;4174;48.304;16.364;2023-08-08T23:46:36;4.60;;;1.30;;
8268;SDS011;4174;48.304;16.364;2023-08-08T23:52:40;4.70;;;1.30;;
8268;SDS011;4174;48.304;16.364;2023-08-08T23:58:44;4.70;;;1.30;;
